createdAt,value
2019-02-15T00:00:47.534Z,10.23
2019-02-15T00:03:35.284Z,9.65
2019-02-15T00:06:03.559Z,9.60
2019-02-15T00:08:31.810Z,9.70
2019-02-15T00:11:00.091Z,10.47
2019-02-15T00:13:28.362Z,9.95
2019-02-15T00:15:56.623Z,10.13
2019-02-15T00:18:30.168Z,10.55
2019-02-15T00:21:19.646Z,10.37
2019-02-15T00:23:47.901Z,10.23
2019-02-15T00:26:16.759Z,9.80
2019-02-15T00:28:45.201Z,8.63
2019-02-15T00:31:15.211Z,9.73
2019-02-15T00:33:43.468Z,9.88
2019-02-15T00:36:11.733Z,10.05
2019-02-15T00:38:40.003Z,9.13
2019-02-15T00:41:27.699Z,9.05
2019-02-15T00:43:55.979Z,9.33
2019-02-15T00:46:28.947Z,9.30
2019-02-15T00:48:57.930Z,10.45
2019-02-15T00:51:30.480Z,9.95
2019-02-15T00:54:06.056Z,10.03
2019-02-15T00:56:38.659Z,10.85
2019-02-15T00:59:20.730Z,10.48
2019-02-15T01:01:50.622Z,10.05
2019-02-15T01:04:36.851Z,10.70
2019-02-15T01:07:15.634Z,10.28
2019-02-15T01:10:01.815Z,9.55
2019-02-15T01:12:31.710Z,9.80
2019-02-15T01:14:59.980Z,9.70
2019-02-15T01:17:28.242Z,10.28
2019-02-15T01:19:56.521Z,10.18
2019-02-15T01:22:24.848Z,9.88
2019-02-15T01:24:53.171Z,9.63
2019-02-15T01:27:29.043Z,10.30
2019-02-15T01:29:58.942Z,9.18
2019-02-15T01:32:28.832Z,8.63
2019-02-15T01:34:58.740Z,9.48
2019-02-15T01:37:28.646Z,9.90
2019-02-15T01:40:01.351Z,9.38
2019-02-15T01:42:37.019Z,9.53
2019-02-15T01:45:29.343Z,9.83
2019-02-15T01:47:57.625Z,9.25
2019-02-15T01:50:25.876Z,9.28
2019-02-15T01:52:54.134Z,9.45
2019-02-15T01:55:22.412Z,9.73
2019-02-15T01:57:50.669Z,9.45
2019-02-15T02:00:19.924Z,9.50
2019-02-15T02:02:48.251Z,8.78
2019-02-15T02:05:16.503Z,8.48
2019-02-15T02:07:44.831Z,9.70
2019-02-15T02:10:13.155Z,9.30
2019-02-15T02:12:41.467Z,9.60
2019-02-15T02:15:10.195Z,11.00
2019-02-15T02:17:38.472Z,10.50
2019-02-15T02:20:08.973Z,9.90
2019-02-15T02:22:37.244Z,10.95
2019-02-15T02:25:06.981Z,9.43
2019-02-15T02:27:35.283Z,8.13
2019-02-15T02:30:06.238Z,9.75
2019-02-15T02:35:02.062Z,10.10
2019-02-15T02:37:30.339Z,8.98
2019-02-15T02:39:58.618Z,10.55
2019-02-15T02:42:26.900Z,10.25
2019-02-15T02:44:55.167Z,9.95
2019-02-15T02:47:23.420Z,9.75
2019-02-15T02:49:51.697Z,10.00
2019-02-15T02:52:19.963Z,9.25
2019-02-15T02:54:48.211Z,9.70
2019-02-15T02:57:16.483Z,9.93
2019-02-15T02:59:44.775Z,10.50
2019-02-15T03:02:13.043Z,9.30
2019-02-15T03:04:41.354Z,10.30
2019-02-15T03:07:09.627Z,10.03
2019-02-15T03:09:37.889Z,9.40
2019-02-15T03:12:06.182Z,9.43
2019-02-15T03:14:34.450Z,9.50
2019-02-15T03:17:02.783Z,9.83
2019-02-15T03:19:31.103Z,9.63
2019-02-15T03:21:59.370Z,9.73
2019-02-15T03:24:27.682Z,9.18
2019-02-15T03:26:55.985Z,9.28
2019-02-15T03:29:24.274Z,10.00
2019-02-15T03:31:52.596Z,9.45
2019-02-15T03:34:20.869Z,10.05
2019-02-15T03:36:59.883Z,10.03
2019-02-15T03:39:29.809Z,9.05
2019-02-15T03:41:58.079Z,8.87
2019-02-15T03:44:26.351Z,8.68
2019-02-15T03:46:54.627Z,9.20
2019-02-15T03:49:22.902Z,9.50
2019-02-15T03:51:51.243Z,9.25
2019-02-15T03:54:19.515Z,9.55
2019-02-15T03:56:47.772Z,8.45
2019-02-15T03:59:16.042Z,10.00
2019-02-15T04:01:44.308Z,9.50
2019-02-15T04:04:12.564Z,9.18
2019-02-15T04:06:40.844Z,8.85
2019-02-15T04:09:09.092Z,9.38
2019-02-15T04:11:37.367Z,9.23
2019-02-15T04:14:05.619Z,9.38
2019-02-15T04:16:33.939Z,9.33
2019-02-15T04:19:02.191Z,9.60
2019-02-15T04:21:30.446Z,9.35
2019-02-15T04:24:18.161Z,8.88
2019-02-15T04:26:46.423Z,9.20
2019-02-15T04:29:14.703Z,9.30
2019-02-15T04:31:42.986Z,8.55
2019-02-15T04:34:11.235Z,9.65
2019-02-15T04:36:39.499Z,9.90
2019-02-15T04:39:07.771Z,9.28
2019-02-15T04:41:36.036Z,9.65
2019-02-15T04:44:04.308Z,10.40
2019-02-15T04:46:32.577Z,10.25
2019-02-15T04:49:00.935Z,10.18
2019-02-15T04:51:29.196Z,10.10
2019-02-15T04:53:57.488Z,9.30
2019-02-15T04:56:25.820Z,9.90
2019-02-15T04:58:54.074Z,8.63
2019-02-15T05:01:22.348Z,9.88
2019-02-15T05:03:50.611Z,10.58
2019-02-15T05:06:19.018Z,9.95
2019-02-15T05:08:47.334Z,9.20
2019-02-15T05:11:15.630Z,9.80
2019-02-15T05:13:43.965Z,10.28
2019-02-15T05:16:12.218Z,8.55
2019-02-15T05:18:40.604Z,9.65
2019-02-15T05:21:08.931Z,10.00
2019-02-15T05:23:37.200Z,9.83
2019-02-15T05:26:05.458Z,9.55
2019-02-15T05:28:33.725Z,9.80
2019-02-15T05:31:01.988Z,9.88
2019-02-15T05:33:30.299Z,9.80
2019-02-15T05:35:58.564Z,10.30
2019-02-15T05:38:26.828Z,9.80
2019-02-15T05:40:55.157Z,9.63
2019-02-15T05:43:23.430Z,9.10
2019-02-15T05:45:51.695Z,9.57
2019-02-15T05:48:19.971Z,9.75
2019-02-15T05:50:48.244Z,10.33
2019-02-15T05:53:16.563Z,9.93
2019-02-15T05:55:44.838Z,9.68
2019-02-15T05:58:13.162Z,9.78
2019-02-15T06:00:41.435Z,10.13
2019-02-15T06:03:09.714Z,9.00
2019-02-15T06:05:37.967Z,9.25
2019-02-15T06:08:06.234Z,9.05
2019-02-15T06:10:34.486Z,9.30
2019-02-15T06:13:02.759Z,9.23
2019-02-15T06:15:31.020Z,9.08
2019-02-15T06:17:59.337Z,10.10
2019-02-15T06:20:27.660Z,9.83
2019-02-15T06:22:55.915Z,9.15
2019-02-15T06:25:24.200Z,10.05
2019-02-15T06:27:52.514Z,9.28
2019-02-15T06:30:20.800Z,8.65
2019-02-15T06:32:49.120Z,9.50
2019-02-15T06:35:17.392Z,9.38
2019-02-15T06:37:45.709Z,10.25
2019-02-15T06:40:14.044Z,10.05
2019-02-15T06:42:42.391Z,9.03
2019-02-15T06:45:10.662Z,10.72
2019-02-15T06:47:38.928Z,11.50
2019-02-15T06:50:07.776Z,10.40
2019-02-15T06:52:55.476Z,10.58
2019-02-15T06:55:23.739Z,10.82
2019-02-15T06:57:52.000Z,12.07
2019-02-15T07:00:24.567Z,10.88
2019-02-15T07:02:54.471Z,12.58
2019-02-15T07:05:28.715Z,10.35
2019-02-15T07:07:56.998Z,11.28
2019-02-15T07:10:25.266Z,10.10
2019-02-15T07:12:53.522Z,10.23
2019-02-15T07:15:21.780Z,10.50
2019-02-15T07:17:50.066Z,11.83
2019-02-15T07:20:18.314Z,12.25
2019-02-15T07:22:46.597Z,12.82
2019-02-15T07:25:14.847Z,11.15
2019-02-15T07:27:43.161Z,12.18
2019-02-15T07:30:12.854Z,12.43
2019-02-15T07:32:41.114Z,10.63
2019-02-15T07:35:09.784Z,11.50
2019-02-15T07:37:38.053Z,11.55
2019-02-15T07:40:08.420Z,12.43
2019-02-15T07:42:36.692Z,12.98
2019-02-15T07:45:10.131Z,13.35
2019-02-15T07:47:38.391Z,13.00
2019-02-15T07:50:09.865Z,13.70
2019-02-15T07:52:57.626Z,12.50
2019-02-15T07:55:25.899Z,12.63
2019-02-15T07:57:54.158Z,13.60
2019-02-15T08:00:22.498Z,13.75
2019-02-15T08:02:50.754Z,13.45
2019-02-15T08:05:19.019Z,13.80
2019-02-15T08:07:47.299Z,14.78
2019-02-15T08:10:15.603Z,13.93
2019-02-15T08:12:43.862Z,13.75
2019-02-15T08:15:12.124Z,13.48
2019-02-15T08:17:40.467Z,13.25
2019-02-15T08:20:10.686Z,14.13
2019-02-15T08:22:39.306Z,13.03
2019-02-15T08:25:08.315Z,11.00
2019-02-15T08:27:36.598Z,11.43
2019-02-15T08:30:07.453Z,12.37
2019-02-15T08:32:35.730Z,11.97
2019-02-15T08:35:04.652Z,11.25
2019-02-15T08:37:32.926Z,10.50
2019-02-15T08:40:01.203Z,10.08
2019-02-15T08:42:29.486Z,10.50
2019-02-15T08:44:57.744Z,9.68
2019-02-15T08:47:26.018Z,9.20
2019-02-15T08:49:54.289Z,8.30
2019-02-15T08:52:22.538Z,8.53
2019-02-15T08:54:50.827Z,8.58
2019-02-15T08:57:19.077Z,7.75
2019-02-15T08:59:47.324Z,7.80
2019-02-15T09:02:19.644Z,7.37
2019-02-15T09:04:48.048Z,7.08
2019-02-15T09:07:16.442Z,7.28
2019-02-15T09:09:44.703Z,6.78
2019-02-15T09:12:13.006Z,7.17
2019-02-15T09:14:41.555Z,7.08
2019-02-15T09:17:09.823Z,6.30
2019-02-15T09:19:38.094Z,6.17
2019-02-15T09:22:06.367Z,6.50
2019-02-15T09:24:34.647Z,6.20
2019-02-15T09:27:04.559Z,6.33
2019-02-15T09:29:52.248Z,5.58
2019-02-15T09:32:20.548Z,5.65
2019-02-15T09:34:49.493Z,6.20
2019-02-15T09:37:17.816Z,5.97
2019-02-15T09:39:46.094Z,5.80
2019-02-15T09:42:14.350Z,5.87
2019-02-15T09:44:42.630Z,5.70
2019-02-15T09:47:10.900Z,5.80
2019-02-15T09:49:39.164Z,5.58
2019-02-15T09:52:07.468Z,5.47
2019-02-15T09:54:35.819Z,4.90
2019-02-15T09:57:04.074Z,5.37
2019-02-15T09:59:32.326Z,5.53
2019-02-15T10:02:00.612Z,5.62
2019-02-15T10:04:28.913Z,5.15
2019-02-15T10:06:57.183Z,5.00
2019-02-15T10:09:25.470Z,5.42
2019-02-15T10:11:53.800Z,5.12
2019-02-15T10:14:22.067Z,4.92
2019-02-15T10:16:50.399Z,5.45
2019-02-15T10:19:22.357Z,5.08
2019-02-15T10:21:48.691Z,5.25
2019-02-15T10:24:16.978Z,5.20
2019-02-15T10:26:45.291Z,4.67
2019-02-15T10:29:13.559Z,4.60
2019-02-15T10:31:41.819Z,5.12
2019-02-15T10:34:10.091Z,4.67
2019-02-15T10:36:38.450Z,4.40
2019-02-15T10:39:06.772Z,4.45
2019-02-15T10:41:35.026Z,4.55
2019-02-15T10:44:03.343Z,4.65
2019-02-15T10:46:37.626Z,4.95
2019-02-15T10:49:01.621Z,5.17
2019-02-15T10:51:29.878Z,4.67
2019-02-15T10:54:00.098Z,4.62
2019-02-15T10:56:28.157Z,4.80
2019-02-15T10:58:56.442Z,4.92
2019-02-15T11:01:24.820Z,4.37
2019-02-15T11:03:53.218Z,4.42
2019-02-15T11:06:21.457Z,4.45
2019-02-15T11:08:49.854Z,4.20
2019-02-15T11:11:18.111Z,4.25
2019-02-15T11:13:46.381Z,3.77
2019-02-15T11:16:14.651Z,4.05
2019-02-15T11:18:43.035Z,4.20
2019-02-15T11:21:11.345Z,3.70
2019-02-15T11:23:39.664Z,4.10
2019-02-15T11:26:07.991Z,3.65
2019-02-15T11:28:36.313Z,3.50
2019-02-15T11:31:04.571Z,3.60
2019-02-15T11:33:32.832Z,3.52
2019-02-15T11:36:01.109Z,4.00
2019-02-15T11:38:29.383Z,3.83
2019-02-15T11:40:57.671Z,3.90
2019-02-15T11:43:25.939Z,3.95
2019-02-15T11:45:54.210Z,4.87
2019-02-15T11:48:22.646Z,4.20
2019-02-15T11:50:50.899Z,3.90
2019-02-15T11:53:19.297Z,4.00
2019-02-15T11:55:47.549Z,3.37
2019-02-15T11:58:15.830Z,3.33
2019-02-15T12:00:44.148Z,3.80
2019-02-15T12:03:13.292Z,3.98
2019-02-15T12:05:41.560Z,3.62
2019-02-15T12:08:09.818Z,3.72
2019-02-15T12:10:38.087Z,3.50
2019-02-15T12:13:06.346Z,4.00
2019-02-15T12:15:34.697Z,4.35
2019-02-15T12:18:02.956Z,3.75
2019-02-15T12:20:31.231Z,4.15
2019-02-15T12:22:59.484Z,4.10
2019-02-15T12:25:27.771Z,3.30
2019-02-15T12:27:56.099Z,3.25
2019-02-15T12:30:24.358Z,3.10
2019-02-15T12:32:52.655Z,3.20
2019-02-15T12:35:20.987Z,3.05
2019-02-15T12:37:49.243Z,3.30
2019-02-15T12:40:17.522Z,3.10
2019-02-15T12:42:45.778Z,2.50
2019-02-15T12:45:14.580Z,2.75
2019-02-15T12:47:42.857Z,2.80
2019-02-15T12:50:19.283Z,2.80
2019-02-15T12:52:47.561Z,2.72
2019-02-15T12:55:15.814Z,2.60
2019-02-15T12:57:44.086Z,2.60
2019-02-15T13:00:16.469Z,2.50
2019-02-15T13:02:44.795Z,2.45
2019-02-15T13:05:13.813Z,2.12
2019-02-15T13:07:42.098Z,2.40
2019-02-15T13:10:12.950Z,2.12
2019-02-15T13:12:41.211Z,2.22
2019-02-15T13:15:10.864Z,1.80
2019-02-15T13:17:39.112Z,1.80
2019-02-15T13:20:10.903Z,2.20
2019-02-15T13:22:39.195Z,2.00
2019-02-15T13:25:08.091Z,1.67
2019-02-15T13:27:36.351Z,1.65
2019-02-15T13:30:07.881Z,1.62
2019-02-15T13:32:36.139Z,2.00
2019-02-15T13:35:06.057Z,1.90
2019-02-15T13:37:34.342Z,2.17
2019-02-15T13:40:02.591Z,1.67
2019-02-15T13:42:30.990Z,1.80
2019-02-15T13:44:59.280Z,1.57
2019-02-15T13:47:34.254Z,1.85
2019-02-15T13:49:57.598Z,2.08
2019-02-15T13:52:25.876Z,1.72
2019-02-15T13:54:54.142Z,1.60
2019-02-15T13:57:22.399Z,2.20
2019-02-15T13:59:50.671Z,1.90
2019-02-15T14:02:18.946Z,1.95
2019-02-15T14:04:47.199Z,1.80
2019-02-15T14:07:17.884Z,1.57
2019-02-15T14:09:46.144Z,1.52
2019-02-15T14:12:14.671Z,1.35
2019-02-15T14:14:42.944Z,1.47
2019-02-15T14:17:11.204Z,1.40
2019-02-15T14:19:39.485Z,1.70
2019-02-15T14:22:07.820Z,1.50
2019-02-15T14:24:36.095Z,1.57
2019-02-15T14:27:04.373Z,1.30
2019-02-15T14:29:32.676Z,1.30
2019-02-15T14:32:00.935Z,1.30
2019-02-15T14:34:29.211Z,1.60
2019-02-15T14:36:57.555Z,1.70
2019-02-15T14:39:25.835Z,1.50
2019-02-15T14:41:54.110Z,1.72
2019-02-15T14:44:22.373Z,2.37
2019-02-15T14:46:50.675Z,2.05
2019-02-15T14:49:18.930Z,1.90
2019-02-15T14:51:47.207Z,1.50
2019-02-15T14:54:15.475Z,1.10
2019-02-15T14:56:43.752Z,1.17
2019-02-15T14:59:12.063Z,1.10
2019-02-15T15:01:40.340Z,1.40
2019-02-15T15:04:08.594Z,1.40
2019-02-15T15:06:36.874Z,1.70
2019-02-15T15:09:05.526Z,1.45
2019-02-15T15:11:33.778Z,1.70
2019-02-15T15:14:02.065Z,2.30
2019-02-15T15:16:30.312Z,1.87
2019-02-15T15:18:58.586Z,5.00
2019-02-15T15:21:26.846Z,2.83
2019-02-15T15:23:55.116Z,1.77
2019-02-15T15:26:23.375Z,1.50
2019-02-15T15:28:51.722Z,1.30
2019-02-15T15:31:21.892Z,1.75
2019-02-15T15:33:50.025Z,1.30
2019-02-15T15:36:18.549Z,1.20
2019-02-15T15:38:46.862Z,1.20
2019-02-15T15:41:15.130Z,1.20
2019-02-15T15:43:43.393Z,1.15
2019-02-15T15:46:11.714Z,1.10
2019-02-15T15:48:39.971Z,1.32
2019-02-15T15:51:08.241Z,1.22
2019-02-15T15:53:36.491Z,1.35
2019-02-15T15:56:04.843Z,1.65
2019-02-15T15:58:33.119Z,2.20
2019-02-15T16:01:01.391Z,3.03
2019-02-15T16:03:29.724Z,2.00
2019-02-15T16:06:00.089Z,1.82
2019-02-15T16:08:27.989Z,2.60
2019-02-15T16:10:56.323Z,4.03
2019-02-15T16:13:24.620Z,5.37
2019-02-15T16:15:52.887Z,3.85
2019-02-15T16:18:21.193Z,4.55
2019-02-15T16:20:49.454Z,4.60
2019-02-15T16:23:17.731Z,5.60
2019-02-15T16:25:46.042Z,6.00
2019-02-15T16:28:14.340Z,3.50
2019-02-15T16:30:42.588Z,4.72
2019-02-15T16:33:10.885Z,2.30
2019-02-15T16:35:39.226Z,2.20
2019-02-15T16:38:07.615Z,1.98
2019-02-15T16:40:35.939Z,2.00
2019-02-15T16:43:04.271Z,2.33
2019-02-15T16:45:32.543Z,2.00
2019-02-15T16:48:00.808Z,2.25
2019-02-15T16:50:29.213Z,2.72
2019-02-15T16:52:57.535Z,2.72
2019-02-15T16:55:25.810Z,2.45
2019-02-15T16:57:54.097Z,2.60
2019-02-15T17:00:22.429Z,2.52
2019-02-15T17:02:50.710Z,3.05
2019-02-15T17:05:19.060Z,2.45
2019-02-15T17:07:47.323Z,2.40
2019-02-15T17:10:15.581Z,2.80
2019-02-15T17:12:43.859Z,2.90
2019-02-15T17:15:13.682Z,2.65
2019-02-15T17:17:41.962Z,2.47
2019-02-15T17:20:10.379Z,2.92
2019-02-15T17:22:38.643Z,3.80
2019-02-15T17:25:09.623Z,6.12
2019-02-15T17:27:37.879Z,4.87
2019-02-15T17:30:09.555Z,3.90
2019-02-15T17:32:37.802Z,4.28
2019-02-15T17:35:08.425Z,3.77
2019-02-15T17:37:36.679Z,2.95
2019-02-15T17:40:08.202Z,5.97
2019-02-15T17:42:36.465Z,3.90
2019-02-15T17:45:06.474Z,3.65
2019-02-15T17:47:34.736Z,4.57
2019-02-15T17:50:03.035Z,4.50
2019-02-15T17:52:31.298Z,3.67
2019-02-15T17:54:59.552Z,4.62
2019-02-15T17:57:27.834Z,3.95
2019-02-15T17:59:56.094Z,4.60
2019-02-15T18:02:24.371Z,4.62
2019-02-15T18:04:52.648Z,4.35
2019-02-15T18:07:20.923Z,3.72
2019-02-15T18:09:49.183Z,3.33
2019-02-15T18:12:17.477Z,3.75
2019-02-15T18:14:45.807Z,4.00
2019-02-15T18:17:14.067Z,4.50
2019-02-15T18:19:47.278Z,4.17
2019-02-15T18:22:12.318Z,4.87
2019-02-15T18:24:40.583Z,4.62
2019-02-15T18:27:08.835Z,4.62
2019-02-15T18:29:37.086Z,4.67
2019-02-15T18:32:05.357Z,4.90
2019-02-15T18:34:33.652Z,4.78
2019-02-15T18:37:02.196Z,4.87
2019-02-15T18:39:30.516Z,5.30
2019-02-15T18:41:58.791Z,5.10
2019-02-15T18:44:27.039Z,5.25
2019-02-15T18:46:55.308Z,5.17
2019-02-15T18:49:23.571Z,4.45
2019-02-15T18:51:51.830Z,4.85
2019-02-15T18:54:20.149Z,4.60
2019-02-15T18:56:48.460Z,4.60
2019-02-15T18:59:16.716Z,4.30
2019-02-15T19:01:45.033Z,4.78
2019-02-15T19:04:13.551Z,4.28
2019-02-15T19:06:41.830Z,4.50
2019-02-15T19:09:10.087Z,4.50
2019-02-15T19:11:38.353Z,4.37
2019-02-15T19:14:06.621Z,3.92
2019-02-15T19:16:34.918Z,4.00
2019-02-15T19:19:03.249Z,4.53
2019-02-15T19:21:31.520Z,3.92
2019-02-15T19:23:59.772Z,3.72
2019-02-15T19:26:28.146Z,3.80
2019-02-15T19:28:56.418Z,3.87
2019-02-15T19:31:24.674Z,3.52
2019-02-15T19:33:52.939Z,3.85
2019-02-15T19:36:21.238Z,3.55
2019-02-15T19:38:49.551Z,3.10
2019-02-15T19:41:17.818Z,2.92
2019-02-15T19:43:46.181Z,3.17
2019-02-15T19:46:14.817Z,4.40
2019-02-15T19:48:43.072Z,3.80
2019-02-15T19:51:11.363Z,4.50
2019-02-15T19:53:39.689Z,4.10
2019-02-15T19:56:07.967Z,4.08
2019-02-15T19:58:36.292Z,3.80
2019-02-15T20:01:04.619Z,3.83
2019-02-15T20:03:32.933Z,3.55
2019-02-15T20:06:01.195Z,3.60
2019-02-15T20:08:29.443Z,3.42
2019-02-15T20:10:57.728Z,3.37
2019-02-15T20:13:25.975Z,3.75
2019-02-15T20:15:54.247Z,3.35
2019-02-15T20:18:22.687Z,3.10
2019-02-15T20:20:51.059Z,2.83
2019-02-15T20:23:19.310Z,2.90
2019-02-15T20:25:47.563Z,3.22
2019-02-15T20:28:15.839Z,3.00
2019-02-15T20:30:44.115Z,3.10
2019-02-15T20:33:12.409Z,2.50
2019-02-15T20:35:40.739Z,2.87
2019-02-15T20:38:09.007Z,2.33
2019-02-15T20:40:37.271Z,2.67
2019-02-15T20:43:05.546Z,3.08
2019-02-15T20:45:33.799Z,3.22
2019-02-15T20:48:02.110Z,5.17
2019-02-15T20:50:30.417Z,4.35
2019-02-15T20:52:58.683Z,3.90
2019-02-15T20:55:26.959Z,3.90
2019-02-15T20:57:55.328Z,3.80
2019-02-15T21:00:26.833Z,4.03
2019-02-15T21:02:55.090Z,3.30
2019-02-15T21:05:23.375Z,3.20
2019-02-15T21:07:51.647Z,3.72
2019-02-15T21:10:19.919Z,4.58
2019-02-15T21:12:48.177Z,4.15
2019-02-15T21:15:16.444Z,3.92
2019-02-15T21:17:44.712Z,3.58
2019-02-15T21:20:14.155Z,3.92
2019-02-15T21:22:42.404Z,3.77
2019-02-15T21:25:13.184Z,4.10
2019-02-15T21:27:41.508Z,3.67
2019-02-15T21:30:11.912Z,4.22
2019-02-15T21:32:40.167Z,4.55
2019-02-15T21:35:08.502Z,4.37
2019-02-15T21:37:36.742Z,4.67
2019-02-15T21:40:08.635Z,4.55
2019-02-15T21:42:36.921Z,4.62
2019-02-15T21:45:07.651Z,4.33
2019-02-15T21:47:35.951Z,5.20
2019-02-15T21:50:05.539Z,5.30
2019-02-15T21:52:33.846Z,4.97
2019-02-15T21:55:02.101Z,4.35
2019-02-15T21:57:30.363Z,4.53
2019-02-15T21:59:58.614Z,4.53
2019-02-15T22:02:26.883Z,3.90
2019-02-15T22:04:55.163Z,4.72
2019-02-15T22:07:23.703Z,3.87
2019-02-15T22:09:51.987Z,4.70
2019-02-15T22:12:20.276Z,3.92
2019-02-15T22:14:48.529Z,4.53
2019-02-15T22:17:16.784Z,4.30
2019-02-15T22:19:45.083Z,4.45
2019-02-15T22:22:13.404Z,4.30
2019-02-15T22:24:41.669Z,4.10
2019-02-15T22:27:09.926Z,3.90
2019-02-15T22:29:38.209Z,3.67
2019-02-15T22:32:06.472Z,3.87
2019-02-15T22:34:34.742Z,4.03
2019-02-15T22:37:03.013Z,3.62
2019-02-15T22:39:31.283Z,3.87
2019-02-15T22:41:59.543Z,3.60
2019-02-15T22:44:27.840Z,3.20
2019-02-15T22:46:56.103Z,4.22
2019-02-15T22:49:24.350Z,4.42
2019-02-15T22:51:52.628Z,3.40
2019-02-15T22:54:20.907Z,4.40
2019-02-15T22:56:49.239Z,3.87
2019-02-15T22:59:17.518Z,3.25
2019-02-15T23:01:45.779Z,3.70
2019-02-15T23:04:14.038Z,3.30
2019-02-15T23:06:44.049Z,3.62
2019-02-15T23:09:13.919Z,3.60
2019-02-15T23:11:42.186Z,3.53
2019-02-15T23:14:10.440Z,3.62
2019-02-15T23:16:38.732Z,3.65
2019-02-15T23:19:06.983Z,3.70
2019-02-15T23:21:35.238Z,3.70
2019-02-15T23:24:03.503Z,3.55
2019-02-15T23:26:31.783Z,3.63
2019-02-15T23:29:00.045Z,3.30
2019-02-15T23:31:28.291Z,3.40
2019-02-15T23:33:56.560Z,3.90
2019-02-15T23:36:24.815Z,3.50
2019-02-15T23:38:53.085Z,3.67
2019-02-15T23:41:21.352Z,3.98
2019-02-15T23:43:49.616Z,3.47
2019-02-15T23:46:18.791Z,3.70
2019-02-15T23:48:47.066Z,3.50
2019-02-15T23:51:15.386Z,3.35
2019-02-15T23:53:43.663Z,3.27
2019-02-15T23:56:11.929Z,2.87
2019-02-15T23:58:40.258Z,3.15
